Time;durP1;ratioP1;P1;durP2;ratioP2;P2;SDS_P1;SDS_P2;PMS_P1;PMS_P2;Temp;Humidity;BMP_temperature;BMP_pressure;BME280_temperature;BME280_humidity;BME280_pressure;Samples;Min_cycle;Max_cycle;Signal;HPM_P1;HPM_P2
2023/10/05 00:00:38;;;;;;;;;8.25;7.75;;;;;17.77;45.29;102147.31;5061358;28;45281;-66
2023/10/05 00:03:05;;;;;;;;;10.25;9.25;;;;;17.76;45.24;102145.56;5052624;28;45317;-66
2023/10/05 00:05:35;;;;;;;;;11.75;9.00;;;;;17.77;45.36;102147.31;5043066;28;46971;-66
2023/10/05 00:08:02;;;;;;;;;8.50;8.00;;;;;17.75;45.12;102154.44;5061217;28;45262;-66
2023/10/05 00:10:28;;;;;;;;;5.50;5.50;;;;;17.72;45.18;102155.38;5060917;28;45246;-67
2023/10/05 00:12:54;;;;;;;;;7.75;7.75;;;;;17.73;45.28;102157.16;5060980;28;45623;-66
2023/10/05 00:15:23;;;;;;;;;6.25;6.25;;;;;17.73;45.46;102154.50;5061148;28;47088;-66
2023/10/05 00:17:49;;;;;;;;;9.75;8.00;;;;;17.71;45.41;102151.00;5044039;28;45405;-66
2023/10/05 00:20:21;;;;;;;;;10.75;8.50;;;;;17.74;45.22;102158.03;5060921;28;45312;-66
2023/10/05 00:22:49;;;;;;;;;6.75;6.75;;;;;17.73;45.57;102149.19;5039577;28;45477;-66
2023/10/05 00:25:17;;;;;;;;;8.25;6.50;;;;;17.71;45.44;102137.72;5053348;28;46389;-66
2023/10/05 00:27:44;;;;;;;;;11.00;7.00;;;;;17.68;45.44;102129.78;5060948;28;45447;-66
2023/10/05 00:30:12;;;;;;;;;9.25;6.50;;;;;17.65;45.47;102132.53;5042987;28;45277;-66
2023/10/05 00:32:39;;;;;;;;;9.25;6.00;;;;;17.67;45.61;102144.00;5061287;28;45332;-66
2023/10/05 00:37:42;;;;;;;;;5.25;5.25;;;;;17.62;45.75;102151.19;5061058;28;45348;-66
2023/10/05 00:40:11;;;;;;;;;6.75;6.00;;;;;17.59;45.72;102154.78;5060843;28;45186;-66
2023/10/05 00:42:37;;;;;;;;;6.75;5.25;;;;;17.57;45.89;102151.28;5060966;28;45363;-66
2023/10/05 00:45:05;;;;;;;;;11.50;6.00;;;;;17.55;45.88;102150.47;5060542;28;45206;-66
2023/10/05 00:47:32;;;;;;;;;10.50;5.75;;;;;17.44;45.78;102129.41;5043289;28;45341;-66
2023/10/05 00:49:58;;;;;;;;;6.75;5.75;;;;;17.50;45.75;102145.22;5060492;28;45534;-66
2023/10/05 00:52:24;;;;;;;;;8.75;6.75;;;;;17.53;45.76;102160.22;5060736;28;45490;-66
2023/10/05 00:54:53;;;;;;;;;9.00;8.00;;;;;17.51;45.67;102149.63;5041870;28;45356;-66
2023/10/05 00:57:21;;;;;;;;;9.75;6.25;;;;;17.52;46.08;102147.84;5060325;28;45411;-66
2023/10/05 00:59:58;;;;;;;;;7.50;7.00;;;;;17.51;46.02;102136.34;5060417;28;45323;-66
2023/10/05 01:02:25;;;;;;;;;10.50;7.50;;;;;17.48;45.86;102132.88;5053606;28;45281;-66
2023/10/05 01:05:00;;;;;;;;;5.50;5.50;;;;;17.45;46.02;102128.50;5040650;28;47122;-66
2023/10/05 01:07:42;;;;;;;;;4.50;4.50;;;;;17.44;46.33;102125.88;5060278;28;45237;-66
2023/10/05 01:10:39;;;;;;;;;10.75;7.75;;;;;17.41;46.46;102123.28;5060045;28;45298;-66
2023/10/05 01:13:28;;;;;;;;;10.25;9.00;;;;;17.36;46.16;102126.91;5038970;28;45570;-66
2023/10/05 01:15:54;;;;;;;;;11.50;9.25;;;;;17.36;46.38;102144.66;5056149;28;46112;-66
2023/10/05 01:18:24;;;;;;;;;9.75;6.75;;;;;17.33;46.16;102147.34;5061574;28;45276;-66
2023/10/05 01:20:50;;;;;;;;;7.00;7.00;;;;;17.34;46.21;102159.75;5060173;28;45307;-66
2023/10/05 01:23:15;;;;;;;;;8.00;7.00;;;;;17.33;46.41;102155.31;5060253;28;45218;-66
2023/10/05 01:25:40;;;;;;;;;7.75;6.00;;;;;17.31;46.04;102149.19;5059888;28;45264;-66
2023/10/05 01:28:07;;;;;;;;;7.00;7.00;;;;;17.28;46.47;102147.47;5038366;28;45778;-66
2023/10/05 01:30:37;;;;;;;;;10.50;6.25;;;;;17.31;46.02;102149.19;5056660;28;45353;-66
2023/10/05 01:33:03;;;;;;;;;6.75;4.00;;;;;17.31;46.38;102150.03;5060245;28;45294;-66
2023/10/05 01:35:29;;;;;;;;;6.50;6.50;;;;;17.29;46.16;102138.56;5058256;28;48136;-66
2023/10/05 01:37:54;;;;;;;;;7.50;6.25;;;;;17.30;46.22;102134.16;5042058;28;45358;-67
2023/10/05 01:42:48;;;;;;;;;10.50;8.75;;;;;17.27;46.51;102126.22;5060038;28;45254;-66
2023/10/05 01:45:25;;;;;;;;;9.75;6.50;;;;;17.25;46.42;102122.75;5059341;28;45929;-66
2023/10/05 01:47:51;;;;;;;;;8.75;6.75;;;;;17.20;46.77;102110.41;5059702;28;45386;-66
2023/10/05 01:50:22;;;;;;;;;8.00;6.50;;;;;17.21;46.54;102114.81;5057451;28;45333;-66
2023/10/05 01:52:55;;;;;;;;;5.50;5.50;;;;;17.22;46.70;102113.06;5041407;28;45443;-66
2023/10/05 01:55:22;;;;;;;;;8.75;6.25;;;;;17.20;46.81;102117.50;5047007;28;45349;-66
2023/10/05 01:57:48;;;;;;;;;8.25;7.50;;;;;17.12;46.17;102104.38;5059637;28;45240;-66
2023/10/05 02:00:18;;;;;;;;;9.50;6.00;;;;;17.17;46.58;102112.28;5059926;28;45473;-66
2023/10/05 02:02:46;;;;;;;;;9.00;6.00;;;;;17.14;46.85;102117.63;5050936;28;45249;-66
2023/10/05 02:05:13;;;;;;;;;7.50;5.75;;;;;17.15;46.82;102120.25;5059434;28;47232;-66
2023/10/05 02:07:38;;;;;;;;;9.00;5.75;;;;;17.14;46.85;102126.47;5059526;28;45356;-66
2023/10/05 02:10:09;;;;;;;;;8.00;5.75;;;;;17.13;46.65;102130.06;5059673;28;45483;-66
2023/10/05 02:12:35;;;;;;;;;8.75;6.00;;;;;17.13;46.79;102135.38;5040357;28;45255;-66
2023/10/05 02:15:10;;;;;;;;;11.50;8.00;;;;;17.12;46.85;102122.97;5059353;28;46091;-66
2023/10/05 02:17:41;;;;;;;;;7.50;7.50;;;;;17.11;47.19;102118.56;5042478;28;45246;-66
2023/10/05 02:20:08;;;;;;;;;9.25;7.25;;;;;17.16;47.14;102123.81;5059344;28;45403;-66
2023/10/05 02:22:35;;;;;;;;;7.00;6.50;;;;;17.13;46.84;102111.47;5058480;28;45512;-66
2023/10/05 02:25:03;;;;;;;;;10.00;8.00;;;;;17.15;47.06;102111.41;5059228;28;46412;-66
2023/10/05 02:27:29;;;;;;;;;6.00;6.00;;;;;17.10;46.84;102105.34;5041281;28;45353;-66
2023/10/05 02:29:54;;;;;;;;;7.50;7.00;;;;;17.10;47.14;102106.19;5059447;28;45323;-66
2023/10/05 02:32:22;;;;;;;;;5.25;5.00;;;;;17.11;47.23;102105.28;5059094;28;45460;-66
2023/10/05 02:35:00;;;;;;;;;7.00;7.00;;;;;17.08;47.27;102099.16;5059198;28;46436;-66
2023/10/05 02:37:28;;;;;;;;;7.50;5.50;;;;;17.06;47.23;102109.81;5045045;28;45306;-66
2023/10/05 02:39:57;;;;;;;;;9.00;7.75;;;;;17.07;47.26;102103.63;5041896;28;45430;-66
2023/10/05 02:42:24;;;;;;;;;8.50;7.75;;;;;17.04;47.22;102107.22;5061485;28;45599;-66
2023/10/05 02:44:53;;;;;;;;;8.00;8.00;;;;;17.04;47.39;102098.34;5061593;28;46183;-66
2023/10/05 02:47:23;;;;;;;;;7.75;7.75;;;;;17.02;47.43;102102.84;5062769;28;45373;-66
2023/10/05 02:49:49;;;;;;;;;8.75;6.00;;;;;17.01;47.48;102098.41;5062330;28;45237;-66
2023/10/05 02:52:16;;;;;;;;;9.00;7.00;;;;;16.98;47.49;102096.69;5062657;28;45170;-66
2023/10/05 02:54:47;;;;;;;;;9.00;6.25;;;;;17.01;47.12;102101.94;5060936;28;46307;-66
2023/10/05 02:57:14;;;;;;;;;7.25;6.00;;;;;17.03;47.42;102101.91;5062154;28;45167;-66
2023/10/05 02:59:43;;;;;;;;;7.50;6.50;;;;;17.03;47.23;102112.53;5062390;28;45380;-66
2023/10/05 03:02:14;;;;;;;;;6.25;6.00;;;;;17.02;47.53;102116.09;5039377;28;45500;-66
2023/10/05 03:04:57;;;;;;;;;4.75;4.75;;;;;17.02;47.40;102110.78;5058417;28;46009;-66
2023/10/05 03:07:25;;;;;;;;;6.25;5.00;;;;;17.01;47.44;102104.59;5062409;28;45457;-66
2023/10/05 03:09:52;;;;;;;;;10.50;7.50;;;;;17.00;47.49;102099.31;5062224;28;45487;-66
2023/10/05 03:12:20;;;;;;;;;11.50;7.00;;;;;16.99;47.59;102098.47;5062109;28;45253;-66
2023/10/05 03:14:46;;;;;;;;;6.75;5.75;;;;;16.98;47.75;102103.78;5061922;28;46180;-68
2023/10/05 03:17:19;;;;;;;;;10.00;7.00;;;;;16.97;47.76;102104.69;5063372;28;45360;-66
2023/10/05 03:19:45;;;;;;;;;7.00;5.75;;;;;16.97;47.48;102099.41;5049551;28;45387;-66
2023/10/05 03:22:13;;;;;;;;;10.00;6.75;;;;;16.95;47.64;102102.06;5043873;28;45402;-66
2023/10/05 03:24:44;;;;;;;;;13.50;12.25;;;;;16.95;47.73;102103.84;5062072;28;46200;-66
2023/10/05 03:27:09;;;;;;;;;11.00;11.00;;;;;16.93;47.81;102089.72;5061767;28;45415;-66
2023/10/05 03:29:35;;;;;;;;;9.75;6.25;;;;;16.87;47.97;102090.69;5043943;28;45918;-66
2023/10/05 03:32:13;;;;;;;;;12.25;10.75;;;;;16.89;47.80;102096.81;5043756;28;45530;-66
2023/10/05 03:34:48;;;;;;;;;10.75;10.00;;;;;16.87;48.09;102101.31;5043581;28;46078;-66
2023/10/05 03:37:13;;;;;;;;;8.25;6.25;;;;;16.86;47.60;102100.41;5061607;28;46359;-66
2023/10/05 03:39:51;;;;;;;;;4.00;4.00;;;;;16.84;47.89;102096.94;5062104;28;45336;-66
2023/10/05 03:42:17;;;;;;;;;8.00;4.25;;;;;16.83;48.16;102100.50;5060427;28;46765;-66
2023/10/05 03:44:42;;;;;;;;;6.75;6.00;;;;;16.81;48.07;102094.31;5061681;28;46045;-66
2023/10/05 03:47:08;;;;;;;;;10.00;6.25;;;;;16.80;48.09;102092.56;5061361;28;45379;-66
2023/10/05 03:49:33;;;;;;;;;8.50;6.75;;;;;16.82;47.93;102084.59;5061585;28;45411;-66
2023/10/05 03:51:58;;;;;;;;;5.00;5.00;;;;;16.81;47.80;102098.78;5061098;28;45446;-66
2023/10/05 03:54:24;;;;;;;;;4.25;4.00;;;;;16.79;48.12;102104.13;5059659;28;46126;-66
2023/10/05 03:56:58;;;;;;;;;5.75;4.25;;;;;16.78;48.06;102096.16;5061213;28;45330;-66
2023/10/05 03:59:23;;;;;;;;;5.75;5.25;;;;;16.74;47.87;102097.97;5060248;28;45523;-66
2023/10/05 04:01:49;;;;;;;;;8.50;6.00;;;;;16.79;47.93;102108.53;5058956;28;45602;-66
2023/10/05 04:04:16;;;;;;;;;7.25;5.25;;;;;16.78;48.00;102106.78;5053404;28;46275;-66
2023/10/05 04:06:42;;;;;;;;;5.75;5.25;;;;;16.82;47.96;102113.78;5061277;28;45304;-66
2023/10/05 04:09:15;;;;;;;;;10.00;6.25;;;;;16.80;48.12;102111.16;5061431;28;45451;-66
2023/10/05 04:11:42;;;;;;;;;13.00;10.75;;;;;16.80;48.31;102115.59;5061085;28;45420;-66
2023/10/05 04:14:08;;;;;;;;;12.25;8.25;;;;;16.78;47.95;102115.63;5061084;28;45301;-66
2023/10/05 04:16:33;;;;;;;;;7.50;7.00;;;;;16.78;48.36;102112.97;5060726;28;45673;-66
2023/10/05 04:19:04;;;;;;;;;8.00;6.75;;;;;16.77;48.24;102108.56;5062534;28;45150;-66
2023/10/05 04:21:29;;;;;;;;;7.75;5.75;;;;;16.77;48.00;102111.22;5061105;28;45430;-66
2023/10/05 04:23:58;;;;;;;;;12.25;8.25;;;;;16.76;48.12;102109.47;5041567;28;47176;-66
2023/10/05 04:26:37;;;;;;;;;6.25;6.00;;;;;16.74;48.22;102106.84;5059960;28;45244;-66
2023/10/05 04:29:12;;;;;;;;;3.75;3.75;;;;;16.70;48.03;102105.16;5059791;28;45267;-66
2023/10/05 04:31:37;;;;;;;;;6.00;4.25;;;;;16.72;48.29;102102.47;5060958;28;45309;-66
2023/10/05 04:34:11;;;;;;;;;5.75;5.25;;;;;16.67;48.17;102102.53;5060298;28;46272;-66
2023/10/05 04:36:38;;;;;;;;;7.50;5.50;;;;;16.67;48.25;102118.47;5060870;28;45220;-66
2023/10/05 04:39:05;;;;;;;;;6.25;5.00;;;;;16.66;48.18;102123.81;5060847;28;45387;-66
2023/10/05 04:41:34;;;;;;;;;7.00;7.00;;;;;16.64;48.62;102130.91;5060497;28;45466;-66
2023/10/05 04:44:00;;;;;;;;;9.75;7.00;;;;;16.63;48.37;102132.69;5060602;28;47248;-66
2023/10/05 04:46:30;;;;;;;;;6.50;6.50;;;;;16.61;48.40;102123.88;5059584;28;45257;-66
2023/10/05 04:48:55;;;;;;;;;10.00;4.75;;;;;16.61;48.58;102128.31;5060785;28;45313;-66
2023/10/05 04:51:30;;;;;;;;;5.75;5.25;;;;;16.60;48.22;102119.47;5060287;28;45499;-66
2023/10/05 04:53:59;;;;;;;;;7.75;5.50;;;;;16.57;48.77;102112.44;5058940;28;47712;-66
2023/10/05 04:59:28;;;;;;;;;9.50;7.50;;;;;16.51;48.29;102096.63;5015596;28;45347;-66
2023/10/05 05:01:59;;;;;;;;;7.25;6.00;;;;;16.52;48.54;102110.78;5057534;28;45456;-66
2023/10/05 05:04:52;;;;;;;;;10.00;7.75;;;;;16.53;48.39;102104.59;5054518;28;47045;-66
2023/10/05 05:07:21;;;;;;;;;8.00;6.50;;;;;16.50;48.67;102102.84;5060377;28;45265;-66
2023/10/05 05:09:47;;;;;;;;;8.75;6.50;;;;;16.48;48.54;102103.78;5060277;28;45288;-66
2023/10/05 05:12:16;;;;;;;;;6.50;6.50;;;;;16.46;48.50;102108.22;5060259;28;45352;-66
2023/10/05 05:14:46;;;;;;;;;5.25;4.00;;;;;16.40;48.55;102110.09;5059850;28;46159;-66
2023/10/05 05:17:14;;;;;;;;;8.75;6.75;;;;;16.41;48.30;102113.59;5061277;28;45407;-67
2023/10/05 05:19:39;;;;;;;;;5.75;5.00;;;;;16.38;48.42;102105.72;5047361;28;45299;-69
2023/10/05 05:22:06;;;;;;;;;55.50;44.25;;;;;16.38;48.27;102109.22;5059890;28;45304;-60
2023/10/05 05:24:33;;;;;;;;;20.75;18.75;;;;;16.37;48.32;102110.13;5060269;28;46368;-60
2023/10/05 05:27:10;;;;;;;;;9.50;7.50;;;;;16.36;48.59;102107.50;5059640;28;45538;-62
2023/10/05 05:29:36;;;;;;;;;6.75;6.25;;;;;16.36;48.35;102111.06;5059942;28;45278;-60
2023/10/05 05:32:11;;;;;;;;;12.00;6.50;;;;;16.36;48.35;102108.41;5059578;28;45327;-60
2023/10/05 05:34:37;;;;;;;;;10.50;7.50;;;;;16.32;48.53;102111.97;5059120;28;46081;-61
2023/10/05 05:37:04;;;;;;;;;10.75;6.75;;;;;16.25;48.25;102092.66;5059650;28;45319;-61
2023/10/05 05:39:33;;;;;;;;;8.00;6.25;;;;;16.27;48.25;102102.38;5060238;28;45295;-61
2023/10/05 05:42:06;;;;;;;;;6.50;4.00;;;;;16.28;48.84;102109.44;5059679;28;45483;-62
2023/10/05 05:44:34;;;;;;;;;2.75;0.75;;;;;16.25;48.79;102103.25;5059641;28;46168;-60
2023/10/05 05:47:07;;;;;;;;;5.50;5.50;;;;;16.22;48.55;102103.28;5058699;28;45474;-61
2023/10/05 05:49:34;;;;;;;;;6.00;6.00;;;;;16.21;48.59;102096.25;5025602;28;45711;-60
2023/10/05 05:51:59;;;;;;;;;36.50;33.00;;;;;16.19;48.60;102110.44;5035998;28;45457;-60
2023/10/05 05:54:29;;;;;;;;;4.50;3.75;;;;;16.18;48.65;102112.22;5052552;28;45974;-60
2023/10/05 05:56:55;;;;;;;;;8.50;6.25;;;;;16.17;48.43;102113.09;5041488;28;45249;-60
2023/10/05 05:59:22;;;;;;;;;6.75;6.75;;;;;16.15;48.76;102117.56;5041186;28;45179;-59
2023/10/05 06:01:48;;;;;;;;;4.75;4.00;;;;;16.13;48.66;102121.16;5053143;28;45248;-59
2023/10/05 06:04:14;;;;;;;;;8.00;7.25;;;;;16.11;48.65;102120.28;5040352;28;47597;-60
2023/10/05 06:06:39;;;;;;;;;6.75;6.75;;;;;16.12;48.62;102133.53;5039501;28;45389;-60
2023/10/05 06:09:07;;;;;;;;;148.00;119.67;;;;;16.11;48.85;102131.75;5054845;28;45416;-60
2023/10/05 06:11:34;;;;;;;;;19.75;15.25;;;;;16.09;48.41;102133.59;5059182;28;45293;-61
2023/10/05 06:14:00;;;;;;;;;26.00;25.00;;;;;16.10;48.17;102138.00;5059882;28;46155;-61
2023/10/05 06:16:25;;;;;;;;;60.75;47.75;;;;;16.10;48.51;102145.94;5062432;28;45406;-61
2023/10/05 06:18:51;;;;;;;;;13.50;10.75;;;;;16.09;48.77;102142.41;5062578;28;45190;-59
2023/10/05 06:21:17;;;;;;;;;24.50;22.00;;;;;16.03;48.78;102149.56;5062652;28;45602;-60
2023/10/05 06:23:42;;;;;;;;;9.50;6.75;;;;;16.07;48.71;102154.81;5062734;28;46361;-59
2023/10/05 06:26:08;;;;;;;;;7.25;7.00;;;;;16.07;48.48;102162.78;5062371;28;45299;-59
2023/10/05 06:28:34;;;;;;;;;10.25;8.00;;;;;16.06;48.55;102160.13;5061515;28;45316;-59
2023/10/05 06:31:01;;;;;;;;;12.25;8.25;;;;;16.05;48.63;102168.97;5062800;28;45398;-60
2023/10/05 06:33:26;;;;;;;;;9.75;5.50;;;;;16.04;49.24;102172.53;5044431;28;48302;-59
2023/10/05 06:35:51;;;;;;;;;7.50;7.25;;;;;16.04;48.85;102161.94;5061837;28;51858;-59
2023/10/05 06:38:17;;;;;;;;;10.75;8.00;;;;;16.02;49.05;102153.13;5062606;28;45372;-59
2023/10/05 06:40:42;;;;;;;;;10.75;9.00;;;;;16.01;48.78;102154.00;5044307;28;45816;-59
2023/10/05 06:43:08;;;;;;;;;9.25;8.00;;;;;16.00;48.73;102153.16;5043659;28;45353;-59
2023/10/05 06:45:36;;;;;;;;;9.00;6.00;;;;;16.00;49.29;102149.59;5062688;28;45239;-59
2023/10/05 06:48:04;;;;;;;;;11.00;8.50;;;;;15.98;49.02;102136.38;5043810;28;45282;-59
2023/10/05 06:50:29;;;;;;;;;16.50;11.00;;;;;16.00;48.80;102136.34;5044111;28;45554;-59
2023/10/05 06:52:55;;;;;;;;;11.75;11.50;;;;;16.00;48.99;102147.84;5060638;28;46439;-59
2023/10/05 06:55:21;;;;;;;;;13.75;12.25;;;;;16.01;49.35;102154.00;5055893;28;45451;-59
2023/10/05 06:57:50;;;;;;;;;9.50;9.50;;;;;16.01;49.37;102157.56;5062145;28;45340;-59
2023/10/05 07:00:16;;;;;;;;;13.75;12.00;;;;;16.02;49.15;102169.03;5062100;28;45277;-59
2023/10/05 07:02:43;;;;;;;;;10.00;7.25;;;;;16.02;49.35;102179.63;5061614;28;46490;-59
2023/10/05 07:05:09;;;;;;;;;12.25;10.00;;;;;16.03;49.07;102170.78;5072968;28;45531;-59
2023/10/05 07:07:35;;;;;;;;;12.00;11.50;;;;;16.04;49.31;102169.91;5062443;28;45498;-59
2023/10/05 07:10:05;;;;;;;;;11.25;9.00;;;;;16.04;49.39;102170.75;5062096;28;45337;-59
2023/10/05 07:12:32;;;;;;;;;12.50;11.50;;;;;16.06;49.22;102165.44;5044180;28;45518;-59
2023/10/05 07:14:58;;;;;;;;;12.25;11.25;;;;;16.05;49.50;102175.16;5062025;28;45414;-59
2023/10/05 07:17:26;;;;;;;;;12.00;11.25;;;;;16.07;49.29;102172.50;5044328;28;45522;-59
2023/10/05 07:19:52;;;;;;;;;13.25;12.00;;;;;16.07;49.24;102178.69;5061811;28;45238;-59
2023/10/05 07:22:17;;;;;;;;;17.25;12.00;;;;;16.09;49.44;102191.91;5062001;28;45381;-59
2023/10/05 07:24:43;;;;;;;;;13.50;11.25;;;;;16.12;49.35;102191.00;5062249;28;45303;-60
2023/10/05 07:27:08;;;;;;;;;10.50;10.00;;;;;16.13;49.29;102188.31;5043058;28;45408;-59
2023/10/05 07:29:34;;;;;;;;;15.00;13.00;;;;;16.13;49.28;102198.06;5043974;28;45293;-59
2023/10/05 07:32:01;;;;;;;;;14.50;13.50;;;;;16.16;49.21;102198.91;5061982;28;45416;-59
2023/10/05 07:34:26;;;;;;;;;13.00;10.50;;;;;16.18;49.48;102191.78;5061813;28;45225;-59
2023/10/05 07:36:52;;;;;;;;;15.25;12.00;;;;;16.18;49.43;102186.47;5061898;28;45221;-59
2023/10/05 07:39:18;;;;;;;;;9.75;9.00;;;;;16.17;49.17;102176.75;5061906;28;45162;-59
2023/10/05 07:41:46;;;;;;;;;14.00;13.50;;;;;16.20;49.38;102184.69;5061614;28;46167;-59
2023/10/05 07:44:11;;;;;;;;;10.00;6.00;;;;;16.23;49.60;102181.09;5061649;28;45404;-59
2023/10/05 07:46:38;;;;;;;;;16.25;15.00;;;;;16.26;49.29;102183.69;5061706;28;45431;-59
2023/10/05 07:49:03;;;;;;;;;21.50;15.00;;;;;16.27;49.61;102193.41;5061432;28;45633;-59
2023/10/05 07:51:28;;;;;;;;;13.25;12.50;;;;;16.28;49.49;102191.66;5061697;28;45304;-59
2023/10/05 07:53:54;;;;;;;;;18.25;15.75;;;;;16.31;49.84;102197.75;5067981;28;45215;-59
2023/10/05 07:56:19;;;;;;;;;10.50;10.50;;;;;16.35;49.63;102194.19;5043179;28;45329;-59
2023/10/05 07:58:45;;;;;;;;;15.00;14.25;;;;;16.38;49.68;102207.38;5061518;28;45229;-59
2023/10/05 08:01:10;;;;;;;;;17.50;14.25;;;;;16.46;49.79;102222.31;5060610;28;45601;-59
2023/10/05 08:03:39;;;;;;;;;13.50;12.00;;;;;16.51;49.90;102217.81;5061302;28;45459;-59
2023/10/05 08:06:05;;;;;;;;;9.25;8.25;;;;;16.58;49.67;102207.06;5053370;28;45341;-59
2023/10/05 08:08:30;;;;;;;;;14.25;13.25;;;;;16.64;49.62;102198.16;5061055;28;45416;-59
2023/10/05 08:10:56;;;;;;;;;15.75;13.25;;;;;16.70;49.77;102199.81;5060525;28;45365;-59
2023/10/05 08:13:22;;;;;;;;;11.00;10.00;;;;;16.77;49.82;102187.34;5061166;28;45337;-59
2023/10/05 08:15:48;;;;;;;;;16.50;14.75;;;;;16.81;49.68;102184.56;5060800;28;45544;-59
2023/10/05 08:18:13;;;;;;;;;17.50;15.00;;;;;16.92;49.93;102200.38;5060825;28;54042;-59
2023/10/05 08:20:38;;;;;;;;;15.00;15.00;;;;;16.98;49.94;102212.63;5060775;28;45240;-59
2023/10/05 08:23:04;;;;;;;;;16.75;15.50;;;;;17.04;49.88;102204.56;5061107;28;45443;-59
2023/10/05 08:25:30;;;;;;;;;16.50;15.75;;;;;17.10;49.85;102228.34;5061120;28;45308;-59
2023/10/05 08:27:55;;;;;;;;;15.50;13.25;;;;;17.16;50.17;102238.88;5042798;28;45260;-58
2023/10/05 08:30:24;;;;;;;;;21.25;19.25;;;;;17.24;49.68;102248.50;5060999;28;45240;-59
2023/10/05 08:32:50;;;;;;;;;20.75;17.75;;;;;17.29;49.96;102246.63;5060952;28;45362;-58
2023/10/05 08:35:18;;;;;;;;;16.25;16.25;;;;;17.37;49.93;102258.88;5060749;28;45570;-58
2023/10/05 08:37:48;;;;;;;;;20.50;16.00;;;;;17.43;49.80;102254.34;5060781;28;45176;-58
2023/10/05 08:40:37;;;;;;;;;14.25;12.25;;;;;17.48;49.81;102266.66;5060453;28;45344;-58
2023/10/05 08:43:10;;;;;;;;;15.00;12.75;;;;;17.57;49.91;102272.69;5049620;28;45364;-58
2023/10/05 08:45:47;;;;;;;;;21.25;13.00;;;;;17.64;49.79;102282.28;5060862;28;45265;-58
2023/10/05 08:48:35;;;;;;;;;13.25;11.50;;;;;17.71;50.06;102278.63;5060686;28;45431;-59
2023/10/05 08:51:15;;;;;;;;;9.25;9.25;;;;;17.78;49.72;102268.72;5060568;28;46174;-58
2023/10/05 08:53:48;;;;;;;;;15.50;13.75;;;;;17.84;49.76;102261.47;5066838;28;45543;-58
2023/10/05 08:56:17;;;;;;;;;20.00;14.25;;;;;17.91;49.53;102264.03;5060452;28;45332;-59
2023/10/05 08:58:47;;;;;;;;;18.50;18.25;;;;;17.98;49.75;102271.88;5060368;28;45449;-58
2023/10/05 09:01:35;;;;;;;;;16.25;11.75;;;;;18.04;49.95;102268.22;5060282;28;45431;-58
2023/10/05 09:04:04;;;;;;;;;21.50;13.50;;;;;18.09;49.47;102284.09;5057225;28;45336;-58
2023/10/05 09:06:30;;;;;;;;;11.75;11.25;;;;;18.15;49.64;102281.25;5055719;28;45249;-58
2023/10/05 09:11:32;;;;;;;;;17.25;12.50;;;;;18.25;49.62;102271.31;5060010;28;45233;-58
2023/10/05 09:14:20;;;;;;;;;18.50;12.00;;;;;18.27;49.55;102264.19;5060412;28;45294;-58
2023/10/05 09:16:47;;;;;;;;;13.50;12.25;;;;;18.30;49.25;102272.06;5060268;28;45248;-58
2023/10/05 09:19:23;;;;;;;;;15.50;12.50;;;;;18.34;49.42;102265.78;5041947;28;45325;-58
2023/10/05 09:22:10;;;;;;;;;13.50;12.75;;;;;18.39;49.50;102260.34;5060178;28;45329;-61
2023/10/05 09:24:36;;;;;;;;;12.75;10.75;;;;;18.41;49.12;102245.22;5060336;28;45210;-58
2023/10/05 09:27:17;;;;;;;;;13.25;11.00;;;;;18.43;49.11;102254.94;5059960;28;45250;-58
2023/10/05 09:29:43;;;;;;;;;14.25;10.75;;;;;18.47;49.44;102258.41;5060244;28;45309;-58
2023/10/05 09:32:22;;;;;;;;;16.50;12.00;;;;;18.51;49.27;102247.66;5059941;28;46207;-59
2023/10/05 09:34:55;;;;;;;;;11.75;8.50;;;;;18.56;49.09;102255.50;5041752;28;45246;-59
2023/10/05 09:37:23;;;;;;;;;15.75;12.75;;;;;18.61;49.52;102268.72;5059914;28;45432;-59
2023/10/05 09:39:49;;;;;;;;;18.25;13.25;;;;;18.64;49.19;102269.53;5059886;28;45349;-59
2023/10/05 09:42:17;;;;;;;;;14.25;13.75;;;;;18.73;49.05;102263.09;5059591;28;46264;-59
2023/10/05 09:44:50;;;;;;;;;11.50;11.50;;;;;18.80;49.23;102263.81;5060014;28;45331;-59
2023/10/05 09:47:21;;;;;;;;;14.50;11.50;;;;;18.89;49.51;102265.38;5059873;28;45435;-59
2023/10/05 09:49:47;;;;;;;;;15.00;12.00;;;;;18.97;49.29;102256.31;5063948;28;45253;-59
2023/10/05 09:52:13;;;;;;;;;12.25;9.25;;;;;19.06;49.28;102255.22;5067938;28;46389;-59
2023/10/05 09:54:40;;;;;;;;;8.50;7.25;;;;;19.20;49.48;102264.63;5066518;28;45488;-59
2023/10/05 09:57:10;;;;;;;;;6.50;4.00;;;;;19.28;49.35;102258.19;5064387;28;45514;-59
2023/10/05 09:59:41;;;;;;;;;13.25;9.25;;;;;19.47;48.98;102269.22;5066506;28;45195;-59
2023/10/05 10:02:14;;;;;;;;;9.00;6.50;;;;;19.62;49.30;102275.03;5064939;28;46011;-59
2023/10/05 10:04:42;;;;;;;;;9.00;6.75;;;;;19.73;49.00;102272.94;5039643;28;45361;-59
2023/10/05 10:07:15;;;;;;;;;9.00;7.25;;;;;19.87;49.25;102264.56;5035466;28;45399;-59
2023/10/05 10:09:46;;;;;;;;;9.25;8.50;;;;;20.03;49.00;102262.31;5066199;28;45292;-59
2023/10/05 10:12:25;;;;;;;;;10.00;10.00;;;;;20.15;48.68;102269.09;5065804;28;46327;-61
2023/10/05 10:14:51;;;;;;;;;8.75;7.00;;;;;20.26;49.05;102260.75;5065599;28;45390;-61
2023/10/05 10:17:24;;;;;;;;;8.50;7.25;;;;;20.37;49.21;102247.94;5048259;28;45309;-58
2023/10/05 10:19:55;;;;;;;;;6.00;3.75;;;;;20.47;48.79;102251.19;5065729;28;45503;-58
2023/10/05 10:22:28;;;;;;;;;6.75;6.25;;;;;20.54;48.62;102249.19;5066321;28;45429;-61
2023/10/05 10:24:56;;;;;;;;;4.50;4.50;;;;;20.65;49.24;102236.38;5064938;28;45296;-60
2023/10/05 10:27:27;;;;;;;;;6.75;5.75;;;;;20.75;48.77;102226.28;5066485;28;45250;-60
2023/10/05 10:29:55;;;;;;;;;8.00;7.00;;;;;20.87;48.49;102219.66;5048056;28;45563;-60
2023/10/05 10:32:31;;;;;;;;;13.50;7.75;;;;;20.98;48.82;102222.84;5066002;28;46183;-60
2023/10/05 10:35:10;;;;;;;;;9.00;7.00;;;;;21.07;48.34;102216.31;5065796;28;45224;-60
2023/10/05 10:37:39;;;;;;;;;8.75;8.00;;;;;21.16;48.08;102205.28;5065994;28;45266;-60
2023/10/05 10:40:52;;;;;;;;;6.50;4.00;;;;;21.28;48.34;102203.94;5065951;28;45258;-59
2023/10/05 10:45:40;;;;;;;;;8.75;7.50;;;;;21.43;48.01;102219.47;5065713;28;45569;-59
2023/10/05 10:48:12;;;;;;;;;9.25;7.00;;;;;21.53;48.08;102219.09;5066137;28;45265;-59
2023/10/05 10:50:39;;;;;;;;;8.00;6.50;;;;;21.57;48.07;102223.44;5065545;28;45807;-59
2023/10/05 10:53:13;;;;;;;;;7.50;6.00;;;;;21.62;47.94;102229.47;5072025;28;46047;-59
2023/10/05 10:55:45;;;;;;;;;10.50;6.50;;;;;21.64;47.33;102232.97;5065365;28;45438;-59
2023/10/05 10:58:13;;;;;;;;;7.75;6.00;;;;;21.67;47.94;102229.31;5044204;28;45494;-59
2023/10/05 11:03:14;;;;;;;;;5.00;4.25;;;;;21.75;47.61;102243.28;5062417;28;45325;-59
2023/10/05 11:05:54;;;;;;;;;5.75;5.75;;;;;21.79;47.44;102236.88;5053540;28;45351;-59
2023/10/05 11:08:20;;;;;;;;;4.75;4.00;;;;;21.84;47.20;102239.41;5062479;28;45353;-60
2023/10/05 11:13:43;;;;;;;;;6.50;5.00;;;;;22.01;47.28;102226.25;5062456;28;45337;-60
2023/10/05 11:16:09;;;;;;;;;6.00;5.25;;;;;22.16;47.11;102231.91;5062105;28;45396;-59
2023/10/05 11:18:39;;;;;;;;;4.25;4.25;;;;;22.33;46.90;102237.47;5044034;28;45471;-60
2023/10/05 11:21:05;;;;;;;;;5.25;4.00;;;;;22.54;47.15;102235.75;5061874;28;45482;-60
2023/10/05 11:23:42;;;;;;;;;5.25;3.50;;;;;22.81;47.32;102234.66;5062021;28;46932;-60
2023/10/05 11:26:33;;;;;;;;;5.75;5.00;;;;;23.12;47.27;102236.00;5061710;28;45344;-59
2023/10/05 11:29:14;;;;;;;;;7.25;5.25;;;;;23.48;47.18;102219.25;5062258;28;45323;-59
2023/10/05 11:31:40;;;;;;;;;7.50;5.50;;;;;23.89;47.39;102223.66;5061844;28;45448;-60
2023/10/05 11:34:11;;;;;;;;;6.50;5.00;;;;;24.24;47.41;102226.47;5026828;28;48459;-60
2023/10/05 11:36:40;;;;;;;;;7.75;6.25;;;;;24.62;47.44;102229.97;5043946;28;45242;-59
2023/10/05 11:39:20;;;;;;;;;6.75;5.25;;;;;25.02;47.46;102224.41;5061886;28;45435;-59
2023/10/05 11:41:46;;;;;;;;;7.00;7.00;;;;;25.42;47.58;102221.44;5042973;28;46451;-60
2023/10/05 11:44:14;;;;;;;;;36.50;26.00;;;;;25.78;46.83;102223.94;5043451;28;48349;-60
2023/10/05 11:46:46;;;;;;;;;8.00;7.00;;;;;26.14;46.46;102208.53;5061780;28;45404;-60